sensor_id;sensor_type;location;lat;lon;timestamp;P1;durP1;ratioP1;P2;durP2;ratioP2
42760;SDS011;31672;47.638;19.026;2024-03-23T00:53:21;9.90;;;4.47;;
42760;SDS011;31672;47.638;19.026;2024-03-23T00:58:23;12.13;;;6.37;;
42760;SDS011;31672;47.638;19.026;2024-03-23T01:03:26;9.50;;;5.13;;
42760;SDS011;31672;47.638;19.026;2024-03-23T01:08:28;11.40;;;5.57;;
42760;SDS011;31672;47.638;19.026;2024-03-23T01:13:30;10.10;;;5.03;;
42760;SDS011;31672;47.638;19.026;2024-03-23T01:18:33;11.00;;;5.30;;
42760;SDS011;31672;47.638;19.026;2024-03-23T01:23:35;9.23;;;4.50;;
42760;SDS011;31672;47.638;19.026;2024-03-23T01:28:38;9.87;;;5.20;;
42760;SDS011;31672;47.638;19.026;2024-03-23T01:33:40;13.87;;;6.00;;
42760;SDS011;31672;47.638;19.026;2024-03-23T01:38:42;11.70;;;5.97;;
42760;SDS011;31672;47.638;19.026;2024-03-23T01:43:45;11.40;;;5.13;;
42760;SDS011;31672;47.638;19.026;2024-03-23T01:48:48;10.40;;;5.27;;
42760;SDS011;31672;47.638;19.026;2024-03-23T01:53:51;15.40;;;5.87;;
42760;SDS011;31672;47.638;19.026;2024-03-23T01:58:56;12.27;;;6.30;;
42760;SDS011;31672;47.638;19.026;2024-03-23T02:03:58;11.17;;;5.63;;
42760;SDS011;31672;47.638;19.026;2024-03-23T02:09:00;9.17;;;5.60;;
42760;SDS011;31672;47.638;19.026;2024-03-23T02:14:03;10.17;;;5.47;;
42760;SDS011;31672;47.638;19.026;2024-03-23T02:19:05;10.13;;;5.73;;
42760;SDS011;31672;47.638;19.026;2024-03-23T02:24:07;14.77;;;6.63;;
42760;SDS011;31672;47.638;19.026;2024-03-23T02:29:09;12.20;;;5.63;;
42760;SDS011;31672;47.638;19.026;2024-03-23T02:34:12;11.83;;;5.43;;
42760;SDS011;31672;47.638;19.026;2024-03-23T02:39:14;16.80;;;6.27;;
42760;SDS011;31672;47.638;19.026;2024-03-23T02:44:16;13.63;;;6.40;;
42760;SDS011;31672;47.638;19.026;2024-03-23T02:49:19;15.40;;;6.87;;
42760;SDS011;31672;47.638;19.026;2024-03-23T02:54:23;12.20;;;6.17;;
42760;SDS011;31672;47.638;19.026;2024-03-23T02:59:25;12.30;;;5.77;;
42760;SDS011;31672;47.638;19.026;2024-03-23T03:04:27;14.57;;;6.07;;
42760;SDS011;31672;47.638;19.026;2024-03-23T03:09:30;14.30;;;6.23;;
42760;SDS011;31672;47.638;19.026;2024-03-23T03:14:32;14.03;;;5.83;;
42760;SDS011;31672;47.638;19.026;2024-03-23T03:19:38;12.50;;;6.27;;
42760;SDS011;31672;47.638;19.026;2024-03-23T03:24:40;14.13;;;6.60;;
42760;SDS011;31672;47.638;19.026;2024-03-23T03:29:42;11.20;;;5.83;;
42760;SDS011;31672;47.638;19.026;2024-03-23T03:34:46;13.13;;;6.67;;
42760;SDS011;31672;47.638;19.026;2024-03-23T03:39:48;13.30;;;5.77;;
42760;SDS011;31672;47.638;19.026;2024-03-23T03:44:50;11.43;;;6.60;;
42760;SDS011;31672;47.638;19.026;2024-03-23T03:49:54;11.47;;;5.73;;
42760;SDS011;31672;47.638;19.026;2024-03-23T03:55:01;15.90;;;6.93;;
42760;SDS011;31672;47.638;19.026;2024-03-23T04:00:04;15.47;;;6.97;;
42760;SDS011;31672;47.638;19.026;2024-03-23T04:05:08;10.97;;;5.47;;
42760;SDS011;31672;47.638;19.026;2024-03-23T04:10:10;14.10;;;6.40;;
42760;SDS011;31672;47.638;19.026;2024-03-23T04:15:12;16.80;;;8.47;;
42760;SDS011;31672;47.638;19.026;2024-03-23T04:20:16;13.70;;;7.70;;
42760;SDS011;31672;47.638;19.026;2024-03-23T04:25:18;16.50;;;7.37;;
42760;SDS011;31672;47.638;19.026;2024-03-23T04:30:21;11.63;;;5.47;;
42760;SDS011;31672;47.638;19.026;2024-03-23T04:35:26;19.50;;;9.17;;
42760;SDS011;31672;47.638;19.026;2024-03-23T04:40:29;18.70;;;9.07;;
42760;SDS011;31672;47.638;19.026;2024-03-23T04:45:31;15.77;;;7.63;;
42760;SDS011;31672;47.638;19.026;2024-03-23T04:50:35;21.60;;;9.67;;
42760;SDS011;31672;47.638;19.026;2024-03-23T04:55:37;18.43;;;9.00;;
42760;SDS011;31672;47.638;19.026;2024-03-23T05:00:39;27.40;;;10.73;;
42760;SDS011;31672;47.638;19.026;2024-03-23T05:05:42;20.57;;;8.87;;
42760;SDS011;31672;47.638;19.026;2024-03-23T05:10:44;17.00;;;8.43;;
42760;SDS011;31672;47.638;19.026;2024-03-23T05:15:52;15.23;;;7.40;;
42760;SDS011;31672;47.638;19.026;2024-03-23T05:20:57;20.40;;;7.03;;
42760;SDS011;31672;47.638;19.026;2024-03-23T05:26:00;13.00;;;6.30;;
42760;SDS011;31672;47.638;19.026;2024-03-23T05:31:03;13.67;;;6.17;;
42760;SDS011;31672;47.638;19.026;2024-03-23T05:36:05;14.07;;;6.83;;
42760;SDS011;31672;47.638;19.026;2024-03-23T05:41:10;19.37;;;8.03;;
42760;SDS011;31672;47.638;19.026;2024-03-23T05:46:13;13.90;;;6.33;;
42760;SDS011;31672;47.638;19.026;2024-03-23T05:51:15;17.80;;;7.07;;
42760;SDS011;31672;47.638;19.026;2024-03-23T05:56:19;19.03;;;7.43;;
42760;SDS011;31672;47.638;19.026;2024-03-23T06:01:21;16.27;;;7.87;;
42760;SDS011;31672;47.638;19.026;2024-03-23T06:06:24;17.23;;;8.30;;
42760;SDS011;31672;47.638;19.026;2024-03-23T06:11:26;25.30;;;10.97;;
42760;SDS011;31672;47.638;19.026;2024-03-23T06:16:28;15.83;;;8.27;;
42760;SDS011;31672;47.638;19.026;2024-03-23T06:21:32;33.63;;;15.63;;
42760;SDS011;31672;47.638;19.026;2024-03-23T06:26:35;15.40;;;8.60;;
42760;SDS011;31672;47.638;19.026;2024-03-23T06:31:37;16.00;;;8.83;;
42760;SDS011;31672;47.638;19.026;2024-03-23T06:36:40;17.70;;;10.17;;
42760;SDS011;31672;47.638;19.026;2024-03-23T06:41:43;21.80;;;11.90;;
42760;SDS011;31672;47.638;19.026;2024-03-23T06:46:55;31.77;;;13.37;;
42760;SDS011;31672;47.638;19.026;2024-03-23T06:52:00;25.13;;;11.80;;
42760;SDS011;31672;47.638;19.026;2024-03-23T06:57:03;39.90;;;16.27;;
42760;SDS011;31672;47.638;19.026;2024-03-23T07:02:05;19.67;;;11.50;;
42760;SDS011;31672;47.638;19.026;2024-03-23T07:07:10;23.27;;;13.10;;
42760;SDS011;31672;47.638;19.026;2024-03-23T07:12:13;18.80;;;10.77;;
42760;SDS011;31672;47.638;19.026;2024-03-23T07:17:15;28.80;;;12.30;;
42760;SDS011;31672;47.638;19.026;2024-03-23T07:22:20;21.93;;;11.10;;
42760;SDS011;31672;47.638;19.026;2024-03-23T07:27:22;19.20;;;10.77;;
42760;SDS011;31672;47.638;19.026;2024-03-23T07:32:25;21.67;;;11.50;;
42760;SDS011;31672;47.638;19.026;2024-03-23T07:37:28;24.53;;;12.70;;
42760;SDS011;31672;47.638;19.026;2024-03-23T07:42:31;16.17;;;9.20;;
42760;SDS011;31672;47.638;19.026;2024-03-23T07:47:33;17.70;;;10.30;;
42760;SDS011;31672;47.638;19.026;2024-03-23T07:52:36;22.73;;;11.77;;
42760;SDS011;31672;47.638;19.026;2024-03-23T07:57:38;22.60;;;12.83;;
42760;SDS011;31672;47.638;19.026;2024-03-23T08:02:41;20.40;;;10.67;;
42760;SDS011;31672;47.638;19.026;2024-03-23T08:07:43;19.23;;;12.03;;
42760;SDS011;31672;47.638;19.026;2024-03-23T08:12:46;18.15;;;11.32;;
42760;SDS011;31672;47.638;19.026;2024-03-23T08:17:49;18.73;;;10.05;;
42760;SDS011;31672;47.638;19.026;2024-03-23T08:22:51;16.40;;;9.40;;
42760;SDS011;31672;47.638;19.026;2024-03-23T08:27:54;16.67;;;9.48;;
42760;SDS011;31672;47.638;19.026;2024-03-23T08:32:56;16.55;;;9.80;;
42760;SDS011;31672;47.638;19.026;2024-03-23T08:37:58;18.20;;;9.82;;
42760;SDS011;31672;47.638;19.026;2024-03-23T08:43:01;21.98;;;12.57;;
42760;SDS011;31672;47.638;19.026;2024-03-23T08:48:03;18.83;;;10.63;;
42760;SDS011;31672;47.638;19.026;2024-03-23T08:53:06;19.63;;;10.18;;
42760;SDS011;31672;47.638;19.026;2024-03-23T08:58:08;16.65;;;10.30;;
42760;SDS011;31672;47.638;19.026;2024-03-23T09:03:11;17.92;;;9.73;;
42760;SDS011;31672;47.638;19.026;2024-03-23T09:08:13;14.10;;;9.13;;
42760;SDS011;31672;47.638;19.026;2024-03-23T09:13:16;19.02;;;11.75;;
42760;SDS011;31672;47.638;19.026;2024-03-23T09:18:18;25.90;;;11.90;;
42760;SDS011;31672;47.638;19.026;2024-03-23T09:23:21;15.85;;;10.38;;
42760;SDS011;31672;47.638;19.026;2024-03-23T09:28:23;19.52;;;9.95;;
42760;SDS011;31672;47.638;19.026;2024-03-23T09:33:26;16.85;;;10.43;;
42760;SDS011;31672;47.638;19.026;2024-03-23T09:38:28;11.15;;;7.80;;
42760;SDS011;31672;47.638;19.026;2024-03-23T09:43:30;12.40;;;7.78;;
42760;SDS011;31672;47.638;19.026;2024-03-23T09:48:32;10.07;;;6.43;;
42760;SDS011;31672;47.638;19.026;2024-03-23T09:53:36;16.13;;;8.32;;
42760;SDS011;31672;47.638;19.026;2024-03-23T09:58:39;24.70;;;8.00;;
42760;SDS011;31672;47.638;19.026;2024-03-23T10:03:42;13.68;;;6.70;;
42760;SDS011;31672;47.638;19.026;2024-03-23T10:08:48;10.70;;;4.82;;
42760;SDS011;31672;47.638;19.026;2024-03-23T10:13:50;15.63;;;6.57;;
42760;SDS011;31672;47.638;19.026;2024-03-23T10:18:54;11.50;;;5.80;;
42760;SDS011;31672;47.638;19.026;2024-03-23T10:23:56;37.60;;;11.60;;
42760;SDS011;31672;47.638;19.026;2024-03-23T10:29:09;6.20;;;3.58;;
42760;SDS011;31672;47.638;19.026;2024-03-23T10:34:13;7.68;;;3.55;;
42760;SDS011;31672;47.638;19.026;2024-03-23T10:39:16;13.32;;;4.60;;
42760;SDS011;31672;47.638;19.026;2024-03-23T10:44:19;24.90;;;8.05;;
42760;SDS011;31672;47.638;19.026;2024-03-23T10:49:21;6.68;;;3.50;;
42760;SDS011;31672;47.638;19.026;2024-03-23T10:54:25;7.65;;;4.03;;
42760;SDS011;31672;47.638;19.026;2024-03-23T10:59:27;19.23;;;5.45;;
42760;SDS011;31672;47.638;19.026;2024-03-23T11:04:33;7.80;;;3.53;;
42760;SDS011;31672;47.638;19.026;2024-03-23T11:09:38;9.60;;;4.80;;
42760;SDS011;31672;47.638;19.026;2024-03-23T11:14:41;8.95;;;3.90;;
42760;SDS011;31672;47.638;19.026;2024-03-23T11:19:44;6.88;;;3.80;;
42760;SDS011;31672;47.638;19.026;2024-03-23T11:24:50;6.65;;;3.63;;
42760;SDS011;31672;47.638;19.026;2024-03-23T11:29:52;8.35;;;3.10;;
42760;SDS011;31672;47.638;19.026;2024-03-23T11:34:54;6.20;;;2.63;;
42760;SDS011;31672;47.638;19.026;2024-03-23T11:39:56;6.97;;;3.17;;
42760;SDS011;31672;47.638;19.026;2024-03-23T11:45:06;8.02;;;3.45;;
42760;SDS011;31672;47.638;19.026;2024-03-23T11:50:11;6.43;;;3.00;;
42760;SDS011;31672;47.638;19.026;2024-03-23T11:55:22;8.30;;;2.90;;
42760;SDS011;31672;47.638;19.026;2024-03-23T12:00:25;6.20;;;2.25;;
42760;SDS011;31672;47.638;19.026;2024-03-23T12:05:28;8.20;;;3.03;;
42760;SDS011;31672;47.638;19.026;2024-03-23T12:10:31;9.23;;;4.57;;
42760;SDS011;31672;47.638;19.026;2024-03-23T12:15:34;10.82;;;3.63;;
42760;SDS011;31672;47.638;19.026;2024-03-23T12:20:37;11.43;;;3.90;;
42760;SDS011;31672;47.638;19.026;2024-03-23T12:25:40;6.97;;;3.15;;
42760;SDS011;31672;47.638;19.026;2024-03-23T12:30:43;7.50;;;3.00;;
42760;SDS011;31672;47.638;19.026;2024-03-23T12:35:49;9.57;;;3.80;;
42760;SDS011;31672;47.638;19.026;2024-03-23T12:40:53;15.75;;;5.85;;
42760;SDS011;31672;47.638;19.026;2024-03-23T12:45:56;6.32;;;3.25;;
42760;SDS011;31672;47.638;19.026;2024-03-23T12:50:59;3.78;;;1.92;;
42760;SDS011;31672;47.638;19.026;2024-03-23T12:56:01;12.05;;;3.20;;
42760;SDS011;31672;47.638;19.026;2024-03-23T13:01:04;24.65;;;7.45;;
42760;SDS011;31672;47.638;19.026;2024-03-23T13:06:07;132.93;;;31.15;;
42760;SDS011;31672;47.638;19.026;2024-03-23T13:11:10;18.73;;;6.45;;
42760;SDS011;31672;47.638;19.026;2024-03-23T13:16:13;7.93;;;3.47;;
42760;SDS011;31672;47.638;19.026;2024-03-23T13:21:15;15.60;;;7.30;;
42760;SDS011;31672;47.638;19.026;2024-03-23T13:26:18;12.80;;;5.40;;
42760;SDS011;31672;47.638;19.026;2024-03-23T13:31:20;20.48;;;7.20;;
42760;SDS011;31672;47.638;19.026;2024-03-23T13:36:23;7.05;;;2.78;;
42760;SDS011;31672;47.638;19.026;2024-03-23T13:41:25;11.65;;;4.68;;
42760;SDS011;31672;47.638;19.026;2024-03-23T13:46:28;9.43;;;4.07;;
42760;SDS011;31672;47.638;19.026;2024-03-23T13:51:31;62.88;;;19.83;;
42760;SDS011;31672;47.638;19.026;2024-03-23T13:56:34;30.25;;;14.80;;
42760;SDS011;31672;47.638;19.026;2024-03-23T14:01:36;35.72;;;16.83;;
42760;SDS011;31672;47.638;19.026;2024-03-23T14:06:39;26.42;;;9.30;;
42760;SDS011;31672;47.638;19.026;2024-03-23T14:11:41;17.40;;;6.97;;
42760;SDS011;31672;47.638;19.026;2024-03-23T14:16:45;15.30;;;7.55;;
42760;SDS011;31672;47.638;19.026;2024-03-23T14:21:47;17.58;;;6.95;;
42760;SDS011;31672;47.638;19.026;2024-03-23T14:26:49;15.52;;;5.22;;
42760;SDS011;31672;47.638;19.026;2024-03-23T14:31:52;23.75;;;9.07;;
42760;SDS011;31672;47.638;19.026;2024-03-23T14:36:54;14.43;;;6.30;;
42760;SDS011;31672;47.638;19.026;2024-03-23T14:41:56;5.63;;;3.00;;
42760;SDS011;31672;47.638;19.026;2024-03-23T14:46:59;32.47;;;11.65;;
42760;SDS011;31672;47.638;19.026;2024-03-23T14:52:01;21.10;;;6.30;;
42760;SDS011;31672;47.638;19.026;2024-03-23T14:57:04;19.65;;;8.18;;
42760;SDS011;31672;47.638;19.026;2024-03-23T15:02:08;15.25;;;7.28;;
42760;SDS011;31672;47.638;19.026;2024-03-23T15:07:11;22.00;;;6.55;;
42760;SDS011;31672;47.638;19.026;2024-03-23T15:12:13;57.35;;;14.70;;
42760;SDS011;31672;47.638;19.026;2024-03-23T15:17:15;20.52;;;5.88;;
42760;SDS011;31672;47.638;19.026;2024-03-23T15:22:18;4.28;;;1.73;;
42760;SDS011;31672;47.638;19.026;2024-03-23T15:27:21;6.85;;;2.95;;
42760;SDS011;31672;47.638;19.026;2024-03-23T15:32:23;1.85;;;1.35;;
42760;SDS011;31672;47.638;19.026;2024-03-23T15:37:25;16.67;;;5.45;;
42760;SDS011;31672;47.638;19.026;2024-03-23T15:42:28;5.35;;;2.83;;
42760;SDS011;31672;47.638;19.026;2024-03-23T15:47:30;2.22;;;1.40;;
42760;SDS011;31672;47.638;19.026;2024-03-23T15:52:33;3.83;;;2.00;;
42760;SDS011;31672;47.638;19.026;2024-03-23T15:57:37;2.78;;;1.60;;
42760;SDS011;31672;47.638;19.026;2024-03-23T16:02:39;5.30;;;2.55;;
42760;SDS011;31672;47.638;19.026;2024-03-23T16:07:42;3.17;;;1.60;;
42760;SDS011;31672;47.638;19.026;2024-03-23T16:12:44;3.65;;;1.80;;
42760;SDS011;31672;47.638;19.026;2024-03-23T16:17:48;3.35;;;1.70;;
42760;SDS011;31672;47.638;19.026;2024-03-23T16:22:51;3.20;;;1.85;;
42760;SDS011;31672;47.638;19.026;2024-03-23T16:27:54;3.80;;;1.70;;
42760;SDS011;31672;47.638;19.026;2024-03-23T16:32:56;13.30;;;3.88;;
42760;SDS011;31672;47.638;19.026;2024-03-23T16:37:59;2.67;;;1.50;;
42760;SDS011;31672;47.638;19.026;2024-03-23T16:43:01;7.18;;;2.78;;
42760;SDS011;31672;47.638;19.026;2024-03-23T16:48:04;3.30;;;1.55;;
42760;SDS011;31672;47.638;19.026;2024-03-23T16:53:07;15.93;;;1.95;;
42760;SDS011;31672;47.638;19.026;2024-03-23T16:58:10;3.90;;;1.20;;
42760;SDS011;31672;47.638;19.026;2024-03-23T17:03:13;1.38;;;0.60;;
42760;SDS011;31672;47.638;19.026;2024-03-23T17:08:15;1.60;;;0.63;;
42760;SDS011;31672;47.638;19.026;2024-03-23T17:13:18;3.72;;;0.95;;
42760;SDS011;31672;47.638;19.026;2024-03-23T17:18:21;4.05;;;1.05;;
42760;SDS011;31672;47.638;19.026;2024-03-23T17:23:23;5.03;;;0.60;;
42760;SDS011;31672;47.638;19.026;2024-03-23T17:28:31;1.03;;;0.37;;
42760;SDS011;31672;47.638;19.026;2024-03-23T17:33:34;8.00;;;2.00;;
42760;SDS011;31672;47.638;19.026;2024-03-23T17:38:36;7.00;;;1.13;;
42760;SDS011;31672;47.638;19.026;2024-03-23T17:43:39;0.77;;;0.30;;
42760;SDS011;31672;47.638;19.026;2024-03-23T17:48:42;0.60;;;0.30;;
42760;SDS011;31672;47.638;19.026;2024-03-23T17:53:45;0.50;;;0.30;;
42760;SDS011;31672;47.638;19.026;2024-03-23T17:58:48;4.13;;;0.63;;
42760;SDS011;31672;47.638;19.026;2024-03-23T18:03:52;1.27;;;0.40;;
42760;SDS011;31672;47.638;19.026;2024-03-23T18:08:55;3.57;;;0.53;;
42760;SDS011;31672;47.638;19.026;2024-03-23T18:13:57;2.23;;;0.43;;
42760;SDS011;31672;47.638;19.026;2024-03-23T18:19:01;4.27;;;0.67;;
42760;SDS011;31672;47.638;19.026;2024-03-23T18:24:04;1.67;;;0.47;;
42760;SDS011;31672;47.638;19.026;2024-03-23T18:29:07;2.20;;;0.60;;
42760;SDS011;31672;47.638;19.026;2024-03-23T18:34:10;0.53;;;0.23;;
42760;SDS011;31672;47.638;19.026;2024-03-23T18:39:12;0.20;;;0.10;;
42760;SDS011;31672;47.638;19.026;2024-03-23T18:44:15;4.20;;;0.57;;
42760;SDS011;31672;47.638;19.026;2024-03-23T18:49:19;1.97;;;0.33;;
42760;SDS011;31672;47.638;19.026;2024-03-23T18:54:21;0.80;;;0.30;;
42760;SDS011;31672;47.638;19.026;2024-03-23T18:59:23;0.77;;;0.30;;
42760;SDS011;31672;47.638;19.026;2024-03-23T19:04:26;2.40;;;1.33;;
42760;SDS011;31672;47.638;19.026;2024-03-23T19:09:29;2.43;;;0.50;;
42760;SDS011;31672;47.638;19.026;2024-03-23T19:14:32;2.13;;;0.40;;
42760;SDS011;31672;47.638;19.026;2024-03-23T19:19:34;0.57;;;0.23;;
42760;SDS011;31672;47.638;19.026;2024-03-23T19:24:37;0.97;;;0.57;;
42760;SDS011;31672;47.638;19.026;2024-03-23T19:29:39;1.30;;;0.57;;
42760;SDS011;31672;47.638;19.026;2024-03-23T19:34:42;1.03;;;0.37;;
42760;SDS011;31672;47.638;19.026;2024-03-23T19:39:44;2.53;;;0.37;;
42760;SDS011;31672;47.638;19.026;2024-03-23T19:44:47;0.60;;;0.40;;
42760;SDS011;31672;47.638;19.026;2024-03-23T19:49:50;0.77;;;0.50;;
42760;SDS011;31672;47.638;19.026;2024-03-23T19:54:52;0.37;;;0.30;;
42760;SDS011;31672;47.638;19.026;2024-03-23T19:59:55;2.00;;;0.60;;
42760;SDS011;31672;47.638;19.026;2024-03-23T20:04:57;0.97;;;0.57;;
42760;SDS011;31672;47.638;19.026;2024-03-23T20:10:01;1.20;;;0.50;;
42760;SDS011;31672;47.638;19.026;2024-03-23T20:15:04;1.23;;;0.50;;
42760;SDS011;31672;47.638;19.026;2024-03-23T20:20:09;0.90;;;0.50;;
42760;SDS011;31672;47.638;19.026;2024-03-23T20:25:12;1.77;;;0.50;;
42760;SDS011;31672;47.638;19.026;2024-03-23T20:30:15;1.57;;;0.60;;
42760;SDS011;31672;47.638;19.026;2024-03-23T20:35:18;4.63;;;0.90;;
42760;SDS011;31672;47.638;19.026;2024-03-23T20:40:21;0.70;;;0.40;;
42760;SDS011;31672;47.638;19.026;2024-03-23T20:45:23;1.33;;;0.43;;
42760;SDS011;31672;47.638;19.026;2024-03-23T20:50:26;1.10;;;0.57;;
42760;SDS011;31672;47.638;19.026;2024-03-23T20:55:29;1.73;;;0.30;;
42760;SDS011;31672;47.638;19.026;2024-03-23T21:00:32;1.60;;;0.50;;
42760;SDS011;31672;47.638;19.026;2024-03-23T21:05:34;0.77;;;0.43;;
42760;SDS011;31672;47.638;19.026;2024-03-23T21:10:36;2.37;;;0.40;;
42760;SDS011;31672;47.638;19.026;2024-03-23T21:15:44;0.90;;;0.50;;
42760;SDS011;31672;47.638;19.026;2024-03-23T21:20:57;4.22;;;1.45;;
42760;SDS011;31672;47.638;19.026;2024-03-23T21:26:04;1.43;;;0.47;;
42760;SDS011;31672;47.638;19.026;2024-03-23T21:31:06;1.13;;;0.50;;
42760;SDS011;31672;47.638;19.026;2024-03-23T21:36:09;0.53;;;0.30;;
42760;SDS011;31672;47.638;19.026;2024-03-23T21:41:11;1.87;;;0.60;;
42760;SDS011;31672;47.638;19.026;2024-03-23T21:46:13;0.60;;;0.30;;
42760;SDS011;31672;47.638;19.026;2024-03-23T21:51:16;1.13;;;0.40;;
42760;SDS011;31672;47.638;19.026;2024-03-23T21:56:19;0.37;;;0.20;;
42760;SDS011;31672;47.638;19.026;2024-03-23T22:01:21;0.60;;;0.30;;
42760;SDS011;31672;47.638;19.026;2024-03-23T22:06:23;2.60;;;0.50;;
42760;SDS011;31672;47.638;19.026;2024-03-23T22:11:26;0.70;;;0.30;;
42760;SDS011;31672;47.638;19.026;2024-03-23T22:16:28;2.07;;;0.30;;
42760;SDS011;31672;47.638;19.026;2024-03-23T22:21:31;1.77;;;1.07;;
42760;SDS011;31672;47.638;19.026;2024-03-23T22:26:34;1.27;;;0.50;;
42760;SDS011;31672;47.638;19.026;2024-03-23T22:31:36;2.30;;;0.80;;
42760;SDS011;31672;47.638;19.026;2024-03-23T22:36:39;0.53;;;0.40;;
42760;SDS011;31672;47.638;19.026;2024-03-23T22:41:42;0.97;;;0.70;;
42760;SDS011;31672;47.638;19.026;2024-03-23T22:46:45;0.90;;;0.70;;
42760;SDS011;31672;47.638;19.026;2024-03-23T22:51:47;1.43;;;0.83;;
42760;SDS011;31672;47.638;19.026;2024-03-23T22:56:49;1.90;;;0.93;;
42760;SDS011;31672;47.638;19.026;2024-03-23T23:01:52;2.47;;;0.90;;
42760;SDS011;31672;47.638;19.026;2024-03-23T23:06:54;1.63;;;0.93;;
42760;SDS011;31672;47.638;19.026;2024-03-23T23:11:56;2.63;;;1.10;;
42760;SDS011;31672;47.638;19.026;2024-03-23T23:17:00;2.10;;;0.70;;
42760;SDS011;31672;47.638;19.026;2024-03-23T23:22:03;2.00;;;1.27;;
42760;SDS011;31672;47.638;19.026;2024-03-23T23:27:06;2.10;;;1.20;;
42760;SDS011;31672;47.638;19.026;2024-03-23T23:32:08;1.37;;;0.80;;
42760;SDS011;31672;47.638;19.026;2024-03-23T23:37:11;1.67;;;0.87;;
42760;SDS011;31672;47.638;19.026;2024-03-23T23:42:14;1.80;;;0.93;;
42760;SDS011;31672;47.638;19.026;2024-03-23T23:47:16;3.00;;;1.40;;
42760;SDS011;31672;47.638;19.026;2024-03-23T23:52:19;3.43;;;1.20;;
42760;SDS011;31672;47.638;19.026;2024-03-23T23:57:22;2.20;;;1.20;;
